Time;durP1;ratioP1;P1;durP2;ratioP2;P2;SDS_P1;SDS_P2;PMS_P1;PMS_P2;Temp;Humidity;BMP_temperature;BMP_pressure;BME280_temperature;BME280_humidity;BME280_pressure;Samples;Min_cycle;Max_cycle;Signal;HPM_P1;HPM_P2
2023/05/19 00:01:15;;;;;;;19.83;6.03;;;16.40;99.90;;;;;;5058120;28;20312;-88
2023/05/19 00:03:56;;;;;;;21.33;6.30;;;16.40;99.90;;;;;;5073867;28;20189;-87
2023/05/19 00:06:26;;;;;;;19.30;5.47;;;16.40;99.90;;;;;;5087733;28;20624;-87
2023/05/19 00:09:04;;;;;;;21.50;5.50;;;16.30;99.90;;;;;;5089212;28;20602;-86
2023/05/19 00:11:32;;;;;;;26.70;6.10;;;16.30;99.90;;;;;;5053831;28;20210;-81
2023/05/19 00:14:00;;;;;;;21.47;5.70;;;16.30;99.90;;;;;;5052394;28;20355;-79
2023/05/19 00:16:28;;;;;;;20.67;6.00;;;16.30;99.90;;;;;;5049226;28;20190;-81
2023/05/19 00:19:00;;;;;;;25.53;5.80;;;16.30;99.90;;;;;;5080260;28;20186;-85
2023/05/19 00:21:28;;;;;;;23.87;5.83;;;16.30;99.90;;;;;;5052120;28;20235;-88
2023/05/19 00:23:55;;;;;;;20.27;5.80;;;16.30;99.90;;;;;;5073018;28;20593;-86
2023/05/19 00:26:21;;;;;;;24.93;5.70;;;16.30;99.90;;;;;;5084203;28;20182;-81
2023/05/19 00:28:49;;;;;;;23.40;6.03;;;16.30;99.90;;;;;;5052068;28;20193;-87
2023/05/19 00:31:16;;;;;;;21.47;6.40;;;16.30;99.90;;;;;;5069628;28;20218;-81
2023/05/19 00:33:42;;;;;;;14.43;5.60;;;16.40;99.90;;;;;;5073207;28;20186;-88
2023/05/19 00:36:09;;;;;;;20.03;5.70;;;16.40;99.90;;;;;;5071341;28;20209;-82
2023/05/19 00:38:36;;;;;;;23.23;5.10;;;16.40;99.90;;;;;;5067423;28;20647;-81
2023/05/19 00:41:04;;;;;;;25.67;5.83;;;16.30;99.90;;;;;;5090088;27;20210;-88
2023/05/19 00:43:33;;;;;;;24.10;6.00;;;16.40;99.90;;;;;;5056107;28;20536;-81
2023/05/19 00:45:59;;;;;;;19.47;5.27;;;16.30;99.90;;;;;;5071600;28;20236;-80
2023/05/19 00:48:26;;;;;;;22.50;5.40;;;16.30;99.90;;;;;;5053502;28;20186;-81
2023/05/19 00:51:03;;;;;;;20.60;5.27;;;16.40;99.90;;;;;;5070821;28;20275;-79
2023/05/19 00:53:33;;;;;;;20.27;5.57;;;16.40;99.90;;;;;;5068873;28;20182;-81
2023/05/19 00:56:01;;;;;;;24.23;5.90;;;16.40;99.90;;;;;;5070394;28;20220;-87
2023/05/19 00:58:31;;;;;;;21.93;5.90;;;16.40;99.90;;;;;;5053658;28;20603;-81
2023/05/19 01:01:06;;;;;;;20.63;6.00;;;16.40;99.90;;;;;;5101207;27;20188;-87
2023/05/19 01:03:34;;;;;;;20.40;5.47;;;16.40;99.90;;;;;;5051901;28;20280;-86
2023/05/19 01:06:06;;;;;;;23.97;5.97;;;16.40;99.90;;;;;;5056524;28;20709;-81
2023/05/19 01:08:36;;;;;;;19.73;5.53;;;16.40;99.90;;;;;;5052700;28;20516;-82
2023/05/19 01:11:06;;;;;;;26.43;6.57;;;16.40;99.90;;;;;;5050039;28;20207;-88
2023/05/19 01:13:35;;;;;;;20.83;6.00;;;16.30;99.90;;;;;;5057028;28;20218;-81
2023/05/19 01:16:21;;;;;;;22.33;5.63;;;16.30;99.90;;;;;;5056085;28;21735;-86
2023/05/19 01:19:37;;;;;;;18.27;6.00;;;16.30;99.90;;;;;;5053762;28;20182;-86
2023/05/19 01:22:21;;;;;;;23.17;5.50;;;16.30;99.90;;;;;;5046062;28;20230;-81
2023/05/19 01:25:13;;;;;;;23.03;5.60;;;16.40;99.90;;;;;;5069294;28;20255;-86
2023/05/19 01:28:11;;;;;;;17.00;5.40;;;16.30;99.90;;;;;;5086956;28;20205;-82
2023/05/19 01:30:41;;;;;;;14.13;5.20;;;16.30;99.90;;;;;;5050524;28;20266;-82
2023/05/19 01:33:15;;;;;;;22.60;6.13;;;16.20;99.90;;;;;;5053239;28;20753;-82
2023/05/19 01:35:43;;;;;;;20.13;5.63;;;16.20;99.90;;;;;;5056164;28;20247;-81
2023/05/19 01:38:11;;;;;;;16.27;5.80;;;16.10;99.90;;;;;;5099662;27;20183;-82
2023/05/19 01:40:40;;;;;;;27.13;6.47;;;16.10;99.90;;;;;;5059301;28;20201;-82
2023/05/19 01:43:15;;;;;;;15.83;5.23;;;16.20;99.90;;;;;;5058168;28;20492;-87
2023/05/19 01:45:44;;;;;;;28.53;6.33;;;16.20;99.90;;;;;;5072403;28;20664;-85
2023/05/19 01:48:11;;;;;;;20.93;5.57;;;16.20;99.90;;;;;;5075610;28;20197;-86
2023/05/19 01:50:39;;;;;;;25.57;5.87;;;16.20;99.90;;;;;;5076913;28;20228;-87
2023/05/19 01:53:06;;;;;;;18.50;5.70;;;16.20;99.90;;;;;;5062562;28;20286;-81
2023/05/19 01:55:48;;;;;;;22.50;6.13;;;16.20;99.90;;;;;;5062112;28;20265;-86
2023/05/19 01:58:51;;;;;;;28.90;6.23;;;16.30;99.90;;;;;;5087002;28;20182;-81
2023/05/19 02:01:36;;;;;;;19.93;5.13;;;16.20;99.90;;;;;;5058537;28;20181;-81
2023/05/19 02:04:24;;;;;;;22.63;6.00;;;16.20;99.90;;;;;;5092287;27;20325;-81
2023/05/19 02:07:02;;;;;;;20.10;5.63;;;16.30;99.90;;;;;;5057089;28;20212;-87
2023/05/19 02:09:52;;;;;;;22.57;5.90;;;16.30;99.90;;;;;;5058029;28;20186;-87
2023/05/19 02:12:26;;;;;;;22.60;6.57;;;16.30;99.90;;;;;;5057763;28;20198;-86
2023/05/19 02:15:01;;;;;;;21.90;5.40;;;16.30;99.90;;;;;;5090678;27;20187;-81
2023/05/19 02:17:35;;;;;;;20.73;5.97;;;16.40;99.90;;;;;;5070784;28;20185;-82
2023/05/19 02:20:07;;;;;;;17.20;5.63;;;16.40;99.90;;;;;;5075082;28;20240;-81
2023/05/19 02:22:34;;;;;;;25.37;5.50;;;16.40;99.90;;;;;;5075274;28;20330;-82
2023/05/19 02:25:01;;;;;;;18.63;4.93;;;16.50;99.90;;;;;;5054946;28;20194;-87
2023/05/19 02:28:05;;;;;;;22.60;5.70;;;16.40;99.90;;;;;;5086182;28;20182;-82
2023/05/19 02:30:31;;;;;;;22.57;5.53;;;16.40;99.90;;;;;;5091753;27;20289;-86
2023/05/19 02:32:58;;;;;;;20.23;5.73;;;16.40;99.90;;;;;;5075448;28;20667;-86
2023/05/19 02:35:24;;;;;;;23.37;6.00;;;16.40;99.90;;;;;;5075995;28;20194;-81
2023/05/19 02:37:50;;;;;;;19.90;5.07;;;16.40;99.90;;;;;;5101942;27;21014;-82
2023/05/19 02:40:17;;;;;;;24.10;5.77;;;16.40;99.90;;;;;;5074336;28;20190;-81
2023/05/19 02:42:43;;;;;;;20.67;5.47;;;16.50;99.90;;;;;;5070719;28;21707;-86
2023/05/19 02:45:10;;;;;;;21.87;5.10;;;16.50;99.90;;;;;;5074569;28;20188;-82
2023/05/19 02:47:37;;;;;;;21.07;5.63;;;16.50;99.90;;;;;;5073191;28;20281;-81
2023/05/19 02:50:05;;;;;;;20.83;6.43;;;16.50;99.90;;;;;;5058628;28;20210;-81
2023/05/19 02:52:31;;;;;;;17.53;5.60;;;16.50;99.90;;;;;;5070936;28;20185;-81
2023/05/19 02:54:58;;;;;;;22.13;5.60;;;16.60;99.90;;;;;;5092290;27;20192;-87
2023/05/19 02:57:25;;;;;;;22.13;5.73;;;16.60;99.90;;;;;;5073036;28;20283;-82
2023/05/19 02:59:52;;;;;;;17.43;5.47;;;16.50;99.90;;;;;;5075755;28;20291;-87
2023/05/19 03:02:19;;;;;;;30.03;6.07;;;16.50;99.90;;;;;;5088187;28;20189;-88
2023/05/19 03:04:46;;;;;;;19.73;5.70;;;16.60;99.90;;;;;;5056140;28;20190;-81
2023/05/19 03:07:12;;;;;;;20.20;5.80;;;16.60;99.90;;;;;;5091812;27;20836;-87
2023/05/19 03:09:39;;;;;;;14.27;5.67;;;16.60;99.90;;;;;;5088995;28;20628;-82
2023/05/19 03:12:06;;;;;;;22.10;6.20;;;16.70;99.90;;;;;;5074115;28;20194;-87
2023/05/19 03:14:37;;;;;;;19.77;5.63;;;16.70;99.90;;;;;;5073029;28;20191;-81
2023/05/19 03:17:06;;;;;;;29.33;5.73;;;16.70;99.90;;;;;;5060024;28;20193;-82
2023/05/19 03:19:34;;;;;;;19.73;5.87;;;16.70;99.90;;;;;;5075067;28;20186;-84
2023/05/19 03:22:00;;;;;;;30.60;5.97;;;16.70;99.90;;;;;;5089084;27;20289;-84
2023/05/19 03:24:26;;;;;;;22.37;5.77;;;16.70;99.90;;;;;;5088894;27;20195;-86
2023/05/19 03:26:53;;;;;;;22.47;6.00;;;16.80;99.90;;;;;;5058154;28;20246;-84
2023/05/19 03:29:20;;;;;;;23.17;6.53;;;16.80;99.90;;;;;;5102779;27;20189;-80
2023/05/19 03:31:46;;;;;;;20.10;6.00;;;16.80;99.90;;;;;;5074534;28;20783;-85
2023/05/19 03:34:15;;;;;;;20.37;5.60;;;16.80;99.90;;;;;;5075057;28;20194;-87
2023/05/19 03:36:43;;;;;;;24.40;6.13;;;16.80;99.90;;;;;;5072638;28;20697;-85
2023/05/19 03:39:09;;;;;;;14.73;5.10;;;16.90;99.90;;;;;;5053109;28;20294;-82
2023/05/19 03:41:36;;;;;;;25.43;6.43;;;16.90;99.90;;;;;;5056270;28;20197;-81
2023/05/19 03:44:03;;;;;;;24.67;5.80;;;16.90;99.90;;;;;;5069181;28;20544;-85
2023/05/19 03:46:29;;;;;;;20.13;5.80;;;16.90;99.90;;;;;;5074570;28;20191;-87
2023/05/19 03:48:56;;;;;;;25.67;6.90;;;17.00;99.90;;;;;;5072111;28;20199;-86
2023/05/19 03:51:23;;;;;;;20.63;5.40;;;17.00;99.90;;;;;;5071924;28;20288;-83
2023/05/19 03:53:52;;;;;;;22.53;6.60;;;17.00;99.90;;;;;;5073316;28;20190;-81
2023/05/19 03:56:21;;;;;;;22.03;6.80;;;17.00;99.90;;;;;;5072972;28;20565;-81
2023/05/19 03:58:48;;;;;;;19.47;5.73;;;17.00;99.90;;;;;;5054692;28;20199;-87
2023/05/19 04:01:15;;;;;;;23.73;6.43;;;17.10;99.90;;;;;;5053293;28;20194;-81
2023/05/19 04:03:42;;;;;;;22.43;6.17;;;17.10;99.90;;;;;;5057529;28;20198;-88
2023/05/19 04:06:08;;;;;;;22.73;6.60;;;17.20;99.90;;;;;;5056026;28;20276;-81
2023/05/19 04:08:35;;;;;;;16.60;5.90;;;17.20;99.90;;;;;;5052550;28;20416;-82
2023/05/19 04:11:02;;;;;;;17.53;6.17;;;17.30;99.90;;;;;;5074392;28;20214;-82
2023/05/19 04:13:31;;;;;;;25.67;6.50;;;17.30;99.90;;;;;;5053645;28;20663;-86
2023/05/19 04:15:58;;;;;;;19.93;5.93;;;17.30;99.90;;;;;;5071850;28;20193;-87
2023/05/19 04:18:26;;;;;;;23.70;6.83;;;17.30;99.90;;;;;;5055843;28;20190;-82
2023/05/19 04:20:52;;;;;;;25.87;7.33;;;17.20;99.90;;;;;;5072172;28;20198;-82
2023/05/19 04:23:19;;;;;;;33.97;7.10;;;17.20;99.90;;;;;;5086044;27;20289;-86
2023/05/19 04:25:47;;;;;;;28.57;7.40;;;17.20;99.90;;;;;;5087604;27;20190;-82
2023/05/19 04:28:16;;;;;;;21.17;6.83;;;17.20;99.90;;;;;;5098851;27;20195;-82
2023/05/19 04:30:45;;;;;;;27.37;7.43;;;17.30;99.90;;;;;;5069973;28;20834;-82
2023/05/19 04:33:12;;;;;;;21.93;7.13;;;17.30;99.90;;;;;;5074320;28;20253;-87
2023/05/19 04:35:38;;;;;;;26.57;6.93;;;17.40;99.90;;;;;;5057874;28;20740;-85
2023/05/19 04:38:05;;;;;;;27.40;7.43;;;17.50;99.90;;;;;;5072194;28;20723;-81
2023/05/19 04:40:33;;;;;;;21.10;7.37;;;17.60;99.90;;;;;;5070644;28;20201;-87
2023/05/19 04:43:00;;;;;;;28.57;8.43;;;17.60;99.90;;;;;;5060264;28;20222;-82
2023/05/19 04:45:31;;;;;;;30.90;8.57;;;17.70;99.90;;;;;;5083378;28;20890;-89
2023/05/19 04:47:59;;;;;;;26.63;7.90;;;17.70;99.90;;;;;;5056374;28;20572;-82
2023/05/19 04:50:27;;;;;;;22.37;7.60;;;17.80;99.90;;;;;;5056576;28;20214;-83
2023/05/19 04:52:53;;;;;;;27.23;7.63;;;17.80;99.90;;;;;;5071217;28;20201;-82
2023/05/19 04:55:20;;;;;;;22.67;7.37;;;17.90;99.90;;;;;;5072867;28;20220;-82
2023/05/19 04:57:46;;;;;;;25.43;7.97;;;17.90;99.90;;;;;;5087503;27;20190;-82
2023/05/19 05:00:14;;;;;;;29.23;8.37;;;17.90;99.90;;;;;;5084500;28;20699;-88
2023/05/19 05:02:41;;;;;;;21.63;7.40;;;17.90;99.90;;;;;;5056365;28;20190;-85
2023/05/19 05:05:08;;;;;;;18.17;7.23;;;18.00;99.90;;;;;;5088225;28;20189;-85
2023/05/19 05:07:35;;;;;;;24.57;7.60;;;18.00;99.90;;;;;;5056037;28;20187;-87
2023/05/19 05:10:02;;;;;;;31.00;7.77;;;18.00;99.90;;;;;;5054704;28;20217;-86
2023/05/19 05:12:30;;;;;;;24.40;7.43;;;18.00;99.90;;;;;;5090760;28;20187;-85
2023/05/19 05:14:57;;;;;;;25.97;7.80;;;18.00;99.90;;;;;;5057869;28;20714;-88
2023/05/19 05:17:25;;;;;;;24.67;7.03;;;18.00;99.90;;;;;;5073898;28;20671;-91
2023/05/19 05:19:52;;;;;;;25.03;7.40;;;18.10;99.90;;;;;;5073987;28;20200;-81
2023/05/19 05:22:19;;;;;;;22.70;7.83;;;18.10;99.90;;;;;;5097070;27;20262;-83
2023/05/19 05:24:46;;;;;;;23.87;7.67;;;18.10;99.90;;;;;;5075394;28;20297;-87
2023/05/19 05:27:13;;;;;;;26.40;7.47;;;18.10;99.90;;;;;;5103988;27;20265;-89
2023/05/19 05:29:39;;;;;;;24.73;7.90;;;18.10;99.90;;;;;;5061931;28;21147;-88
2023/05/19 05:32:06;;;;;;;25.67;7.47;;;18.20;99.90;;;;;;5055445;28;21605;-82
2023/05/19 05:34:34;;;;;;;27.57;7.77;;;18.20;99.90;;;;;;5092761;27;20721;-86
2023/05/19 05:37:01;;;;;;;23.23;7.47;;;18.20;99.90;;;;;;5075801;28;20280;-81
2023/05/19 05:39:27;;;;;;;22.47;7.70;;;18.30;99.90;;;;;;5057748;28;20252;-87
2023/05/19 05:41:54;;;;;;;24.97;8.23;;;18.30;99.90;;;;;;5070760;28;21113;-86
2023/05/19 05:44:20;;;;;;;25.33;8.03;;;18.30;99.90;;;;;;5084035;28;20185;-86
2023/05/19 05:46:47;;;;;;;24.47;7.23;;;18.20;99.90;;;;;;5074893;28;20598;-83
2023/05/19 05:49:13;;;;;;;32.07;8.93;;;18.30;99.90;;;;;;5089388;28;20276;-86
2023/05/19 05:51:40;;;;;;;24.40;8.33;;;18.30;99.90;;;;;;5055424;28;20321;-83
2023/05/19 05:54:08;;;;;;;20.67;7.20;;;18.40;99.90;;;;;;5072685;28;20199;-84
2023/05/19 05:56:36;;;;;;;21.77;7.33;;;18.40;99.90;;;;;;5071408;28;20982;-82
2023/05/19 05:59:03;;;;;;;26.97;7.83;;;18.40;99.90;;;;;;5057929;28;20194;-77
2023/05/19 06:01:30;;;;;;;24.30;6.90;;;18.50;99.90;;;;;;5055249;28;20198;-82
2023/05/19 06:03:56;;;;;;;25.47;7.10;;;18.50;99.90;;;;;;5073535;28;20290;-77
2023/05/19 06:06:24;;;;;;;23.87;7.73;;;18.60;99.90;;;;;;5054674;28;20955;-78
2023/05/19 06:08:50;;;;;;;21.43;7.03;;;18.60;99.90;;;;;;5073363;28;20288;-85
2023/05/19 06:11:18;;;;;;;22.73;6.73;;;18.70;99.90;;;;;;5072540;28;21141;-81
2023/05/19 06:13:44;;;;;;;24.17;7.33;;;18.80;99.90;;;;;;5073845;28;20193;-78
2023/05/19 06:16:10;;;;;;;29.97;7.80;;;18.80;99.90;;;;;;5074766;28;20288;-85
2023/05/19 06:18:37;;;;;;;18.50;7.37;;;18.80;99.90;;;;;;5056772;28;20186;-84
2023/05/19 06:21:03;;;;;;;32.00;8.33;;;18.90;99.90;;;;;;5061094;28;20311;-84
2023/05/19 06:23:32;;;;;;;26.90;7.70;;;19.00;99.90;;;;;;5059760;28;20280;-83
2023/05/19 06:25:59;;;;;;;23.13;6.67;;;19.10;99.90;;;;;;5057461;28;20230;-80
2023/05/19 06:28:25;;;;;;;28.60;7.73;;;19.20;99.90;;;;;;5060791;28;20193;-79
2023/05/19 06:30:52;;;;;;;24.67;7.60;;;19.30;99.90;;;;;;5058338;28;20676;-78
2023/05/19 06:33:18;;;;;;;32.47;8.10;;;19.20;99.90;;;;;;5073538;28;20199;-85
2023/05/19 06:35:44;;;;;;;24.30;7.43;;;19.20;99.90;;;;;;5073058;28;20185;-77
2023/05/19 06:38:11;;;;;;;17.40;6.67;;;19.10;99.90;;;;;;5057973;28;20191;-79
2023/05/19 06:40:37;;;;;;;24.80;6.87;;;19.10;99.90;;;;;;5082641;28;20328;-78
2023/05/19 06:43:03;;;;;;;23.13;7.77;;;19.10;99.90;;;;;;5059541;28;20196;-86
2023/05/19 06:45:30;;;;;;;22.47;7.57;;;19.30;99.90;;;;;;5073133;28;20199;-78
2023/05/19 06:47:58;;;;;;;29.90;7.30;;;19.40;99.90;;;;;;5073352;28;20548;-80
2023/05/19 06:50:25;;;;;;;27.23;7.20;;;19.40;99.90;;;;;;5073357;28;20588;-76
2023/05/19 06:52:52;;;;;;;28.93;6.97;;;19.50;99.90;;;;;;5071499;28;20615;-87
2023/05/19 06:55:18;;;;;;;32.73;7.77;;;19.40;99.90;;;;;;5067946;28;20893;-86
2023/05/19 06:57:45;;;;;;;21.03;7.90;;;19.40;99.90;;;;;;5066628;28;20528;-84
2023/05/19 07:00:12;;;;;;;26.63;8.13;;;19.20;99.90;;;;;;5064950;28;20192;-85
2023/05/19 07:02:39;;;;;;;26.10;7.93;;;19.20;99.90;;;;;;5056098;28;20186;-78
2023/05/19 07:05:07;;;;;;;24.50;7.67;;;19.20;99.90;;;;;;5054477;28;20237;-81
2023/05/19 07:07:33;;;;;;;25.27;7.43;;;19.20;99.90;;;;;;5056325;28;20186;-84
2023/05/19 07:10:00;;;;;;;26.10;8.00;;;19.20;99.90;;;;;;5056286;28;20214;-86
2023/05/19 07:12:29;;;;;;;24.70;7.53;;;19.20;99.90;;;;;;5051549;28;20186;-77
2023/05/19 07:14:55;;;;;;;29.30;7.80;;;19.40;99.90;;;;;;5070623;28;20847;-83
2023/05/19 07:17:22;;;;;;;26.10;8.57;;;19.40;99.90;;;;;;5056884;28;20293;-81
2023/05/19 07:19:48;;;;;;;28.53;8.57;;;19.40;99.90;;;;;;5103501;27;20297;-85
2023/05/19 07:22:15;;;;;;;22.60;7.27;;;19.50;99.90;;;;;;5071464;28;20195;-82
2023/05/19 07:24:41;;;;;;;28.13;6.90;;;19.60;99.90;;;;;;5076530;28;20183;-86
2023/05/19 07:27:09;;;;;;;23.80;7.00;;;19.70;99.90;;;;;;5095000;27;20681;-82
2023/05/19 07:29:36;;;;;;;25.20;7.00;;;19.80;99.90;;;;;;5073435;28;20183;-86
2023/05/19 07:32:05;;;;;;;24.27;7.33;;;19.80;99.90;;;;;;5075281;28;21018;-80
2023/05/19 07:34:31;;;;;;;27.80;6.67;;;19.60;99.90;;;;;;5109513;27;20895;-78
2023/05/19 07:36:58;;;;;;;20.20;6.57;;;19.50;99.90;;;;;;5076495;28;20190;-82
2023/05/19 07:39:28;;;;;;;21.40;6.63;;;19.70;99.90;;;;;;5078231;28;20252;-84
2023/05/19 07:41:58;;;;;;;27.47;7.30;;;19.80;99.90;;;;;;5080709;28;20193;-76
2023/05/19 07:44:25;;;;;;;21.70;6.63;;;20.10;99.90;;;;;;5061257;28;20182;-77
2023/05/19 07:46:53;;;;;;;23.07;6.30;;;20.10;99.90;;;;;;5055025;28;20179;-85
2023/05/19 07:49:20;;;;;;;23.60;6.70;;;20.10;99.90;;;;;;5093225;28;20186;-88
2023/05/19 07:51:46;;;;;;;20.87;6.37;;;19.90;99.90;;;;;;5095259;28;20840;-84
2023/05/19 07:54:13;;;;;;;23.13;5.97;;;19.80;99.90;;;;;;5077102;28;20191;-79
2023/05/19 07:56:41;;;;;;;25.37;6.47;;;19.70;99.90;;;;;;5070280;28;20178;-85
2023/05/19 07:59:12;;;;;;;24.30;7.33;;;19.70;99.90;;;;;;5109567;27;20186;-79
2023/05/19 08:01:38;;;;;;;19.67;6.70;;;19.70;99.90;;;;;;5078685;28;20235;-81
2023/05/19 08:04:04;;;;;;;17.87;6.63;;;19.70;99.90;;;;;;5087851;28;20289;-77
2023/05/19 08:06:30;;;;;;;29.40;7.17;;;19.90;99.90;;;;;;5092916;27;20185;-82
2023/05/19 08:08:57;;;;;;;21.97;6.10;;;20.10;99.90;;;;;;5089963;28;20181;-89
2023/05/19 08:11:23;;;;;;;19.03;6.53;;;20.10;99.90;;;;;;5060506;28;20213;-80
2023/05/19 08:13:51;;;;;;;23.50;6.13;;;20.00;99.90;;;;;;5105796;27;21209;-85
2023/05/19 08:16:17;;;;;;;24.10;5.43;;;20.10;99.90;;;;;;5056706;28;20257;-85
2023/05/19 08:18:44;;;;;;;19.00;5.83;;;20.10;99.90;;;;;;5102893;27;20532;-83
2023/05/19 08:21:11;;;;;;;23.57;6.27;;;20.10;99.90;;;;;;5074637;28;20921;-83
2023/05/19 08:23:37;;;;;;;20.47;6.00;;;20.20;99.90;;;;;;5057669;28;20816;-80
2023/05/19 08:26:05;;;;;;;21.90;6.13;;;20.20;99.90;;;;;;5060559;28;20186;-81
2023/05/19 08:28:32;;;;;;;19.10;6.00;;;20.20;99.90;;;;;;5075220;28;20186;-88
2023/05/19 08:30:58;;;;;;;19.13;5.80;;;20.30;99.90;;;;;;5085234;28;20259;-76
2023/05/19 08:33:25;;;;;;;19.47;6.10;;;20.50;99.90;;;;;;5061104;28;20193;-79
2023/05/19 08:35:51;;;;;;;24.93;6.50;;;20.60;99.90;;;;;;5075637;28;20213;-82
2023/05/19 08:38:20;;;;;;;22.50;6.17;;;20.50;99.90;;;;;;5087751;28;20678;-78
2023/05/19 08:40:47;;;;;;;24.33;6.83;;;20.70;99.90;;;;;;5089970;28;20190;-79
2023/05/19 08:43:15;;;;;;;24.40;6.17;;;21.00;99.90;;;;;;5056620;28;20186;-80
2023/05/19 08:45:46;;;;;;;19.90;6.33;;;21.10;99.90;;;;;;5058153;28;20182;-76
2023/05/19 08:48:18;;;;;;;17.53;4.97;;;21.20;99.90;;;;;;5089367;27;20276;-80
2023/05/19 08:51:06;;;;;;;12.07;4.47;;;21.20;99.90;;;;;;5073593;28;20202;-77
2023/05/19 08:53:52;;;;;;;18.93;5.60;;;21.10;99.90;;;;;;5056849;28;20224;-86
2023/05/19 08:56:25;;;;;;;18.33;5.27;;;21.00;99.90;;;;;;5064500;28;20231;-83
2023/05/19 08:58:52;;;;;;;17.00;5.20;;;21.20;99.90;;;;;;5079412;28;20189;-81
2023/05/19 09:01:23;;;;;;;21.10;5.83;;;21.50;99.90;;;;;;5065384;28;20209;-80
2023/05/19 09:03:50;;;;;;;17.87;5.90;;;21.80;99.90;;;;;;5094159;28;20231;-81
2023/05/19 09:06:17;;;;;;;18.20;5.90;;;21.80;99.90;;;;;;5064748;28;20273;-78
2023/05/19 09:09:03;;;;;;;16.53;5.50;;;22.00;99.90;;;;;;5079868;28;20273;-78
2023/05/19 09:11:51;;;;;;;17.40;6.20;;;22.10;99.90;;;;;;5074004;28;20214;-81
2023/05/19 09:14:38;;;;;;;22.20;5.93;;;21.80;99.90;;;;;;5081615;28;20186;-80
2023/05/19 09:17:25;;;;;;;18.67;5.10;;;21.80;99.90;;;;;;5082785;28;20186;-83
2023/05/19 09:20:12;;;;;;;16.43;6.13;;;21.50;99.90;;;;;;5083892;28;20190;-88
2023/05/19 09:23:02;;;;;;;21.23;5.20;;;21.50;99.90;;;;;;5081658;28;20209;-86
2023/05/19 09:25:30;;;;;;;22.10;6.13;;;21.70;99.90;;;;;;5059576;28;20190;-78
2023/05/19 09:27:58;;;;;;;17.87;5.77;;;22.00;99.90;;;;;;5090237;28;20198;-83
2023/05/19 09:30:24;;;;;;;18.83;5.83;;;22.00;99.90;;;;;;5078023;28;20295;-87
2023/05/19 09:32:51;;;;;;;25.30;6.30;;;21.80;99.90;;;;;;5070827;28;20188;-83
2023/05/19 09:35:20;;;;;;;19.50;5.73;;;21.50;99.90;;;;;;5060822;28;20629;-87
2023/05/19 09:37:52;;;;;;;19.73;5.70;;;21.50;99.90;;;;;;5101799;28;20178;-77
2023/05/19 09:40:18;;;;;;;15.53;5.50;;;21.40;99.90;;;;;;5101645;28;20638;-82
2023/05/19 09:42:45;;;;;;;19.70;6.00;;;21.40;99.90;;;;;;5071100;28;20185;-78
2023/05/19 09:45:13;;;;;;;23.60;6.00;;;21.50;99.90;;;;;;5089792;28;20265;-79
2023/05/19 09:47:41;;;;;;;24.67;5.63;;;21.50;99.90;;;;;;5076644;28;20186;-79
2023/05/19 09:50:09;;;;;;;17.67;5.73;;;21.60;99.90;;;;;;5081371;28;20214;-79
2023/05/19 09:52:38;;;;;;;19.47;6.17;;;21.60;99.90;;;;;;5100901;28;20219;-84
2023/05/19 09:55:09;;;;;;;21.03;5.63;;;21.70;99.90;;;;;;5096184;28;20179;-85
2023/05/19 09:57:38;;;;;;;21.67;6.47;;;21.90;99.90;;;;;;5056038;28;20190;-88
2023/05/19 10:02:45;;;;;;;26.03;6.13;;;21.60;99.90;;;;;;5087455;28;20277;-88
2023/05/19 10:05:18;;;;;;;20.93;5.40;;;21.50;99.90;;;;;;5103239;28;20205;-88
2023/05/19 10:07:53;;;;;;;16.50;5.33;;;21.30;99.90;;;;;;5084883;28;20665;-80
2023/05/19 10:10:21;;;;;;;20.13;5.37;;;21.40;99.90;;;;;;5086040;28;20278;-88
2023/05/19 10:12:48;;;;;;;25.13;5.90;;;21.40;99.90;;;;;;5077157;28;20198;-87
2023/05/19 10:15:19;;;;;;;15.83;5.57;;;21.40;99.90;;;;;;5086652;28;20186;-84
2023/05/19 10:17:50;;;;;;;20.97;5.70;;;21.40;99.90;;;;;;5086657;28;20236;-88
2023/05/19 10:20:17;;;;;;;20.13;5.50;;;21.50;99.90;;;;;;5086470;28;20187;-79
2023/05/19 10:22:47;;;;;;;14.50;5.17;;;21.40;99.90;;;;;;5063732;28;20660;-80
2023/05/19 10:25:17;;;;;;;20.03;5.87;;;21.50;99.90;;;;;;5085137;28;20202;-79
2023/05/19 10:28:04;;;;;;;17.13;5.37;;;21.60;99.90;;;;;;5071798;28;20259;-78
2023/05/19 10:30:43;;;;;;;19.97;5.53;;;21.80;99.90;;;;;;5061085;28;20221;-79
2023/05/19 10:33:27;;;;;;;22.37;6.23;;;21.80;99.90;;;;;;5087379;28;20505;-83
2023/05/19 10:36:22;;;;;;;16.53;5.30;;;21.60;99.90;;;;;;5082466;28;20282;-85
2023/05/19 10:39:24;;;;;;;22.03;5.63;;;21.40;99.90;;;;;;5087343;28;20717;-77
2023/05/19 10:42:26;;;;;;;20.70;6.27;;;21.30;99.90;;;;;;5091738;28;20206;-78
2023/05/19 10:45:03;;;;;;;16.97;5.13;;;21.50;99.90;;;;;;5082635;28;20186;-83
2023/05/19 10:47:32;;;;;;;24.10;6.00;;;21.60;99.90;;;;;;5087888;28;20243;-82
2023/05/19 10:50:00;;;;;;;19.40;5.70;;;21.70;99.90;;;;;;5089216;28;20505;-84
2023/05/19 10:52:37;;;;;;;15.90;4.90;;;22.00;99.90;;;;;;5098247;28;20174;-79
2023/05/19 10:55:07;;;;;;;18.00;5.17;;;22.10;99.90;;;;;;5086599;28;20189;-81
2023/05/19 10:57:34;;;;;;;18.63;5.63;;;22.40;99.90;;;;;;5096260;28;20197;-85
2023/05/19 11:00:26;;;;;;;18.47;5.27;;;22.50;99.90;;;;;;5092577;28;20206;-78
2023/05/19 11:02:55;;;;;;;20.03;5.50;;;22.70;99.90;;;;;;5092593;28;20190;-85
2023/05/19 11:05:29;;;;;;;16.90;4.65;;;22.80;99.90;;;;;;5086620;28;20188;-87
2023/05/19 11:08:06;;;;;;;22.23;5.00;;;22.80;99.90;;;;;;5079765;28;20185;-87
2023/05/19 11:10:33;;;;;;;15.70;5.57;;;22.80;99.90;;;;;;5098295;28;20571;-79
2023/05/19 11:12:59;;;;;;;19.20;5.63;;;22.50;99.90;;;;;;5087101;28;20730;-83
2023/05/19 11:15:27;;;;;;;17.33;5.50;;;22.60;99.90;;;;;;5062575;28;20486;-78
2023/05/19 11:17:55;;;;;;;14.77;4.68;;;22.50;99.90;;;;;;5092008;28;20186;-78
2023/05/19 11:20:27;;;;;;;16.80;5.03;;;22.50;99.90;;;;;;5108134;27;20270;-80
2023/05/19 11:23:13;;;;;;;12.07;4.93;;;22.40;99.90;;;;;;5062647;28;20209;-81
2023/05/19 11:25:46;;;;;;;19.88;6.00;;;22.40;99.90;;;;;;5076299;28;20194;-79
2023/05/19 11:28:18;;;;;;;20.43;5.53;;;22.40;99.90;;;;;;5069554;28;20194;-86
2023/05/19 11:30:49;;;;;;;17.67;4.97;;;22.30;99.90;;;;;;5088037;28;20289;-78
2023/05/19 11:33:18;;;;;;;17.15;5.20;;;22.30;99.90;;;;;;5078897;28;20647;-79
2023/05/19 11:35:50;;;;;;;15.15;5.18;;;22.30;99.90;;;;;;5076433;28;20186;-80
2023/05/19 11:38:22;;;;;;;17.63;5.07;;;22.30;99.90;;;;;;5088125;28;20197;-78
2023/05/19 11:40:55;;;;;;;13.55;5.18;;;22.30;99.90;;;;;;5086938;28;20686;-81
2023/05/19 11:43:23;;;;;;;16.75;4.75;;;22.40;99.90;;;;;;5080122;28;20247;-90
2023/05/19 11:45:50;;;;;;;20.60;5.90;;;22.30;99.90;;;;;;5071342;28;20198;-81
2023/05/19 11:48:21;;;;;;;17.23;4.72;;;22.20;99.90;;;;;;5083243;28;20297;-80
2023/05/19 11:50:47;;;;;;;17.80;5.03;;;22.30;99.90;;;;;;5085546;28;20257;-88
2023/05/19 11:53:19;;;;;;;15.93;4.82;;;22.40;99.90;;;;;;5096969;28;20186;-83
2023/05/19 11:55:47;;;;;;;13.27;5.20;;;22.60;99.90;;;;;;5067032;28;20187;-80
2023/05/19 11:58:15;;;;;;;15.23;5.50;;;22.70;99.90;;;;;;5079398;28;20289;-77
2023/05/19 12:00:46;;;;;;;14.50;5.17;;;22.60;99.90;;;;;;5088525;28;20265;-77
2023/05/19 12:03:13;;;;;;;15.52;4.93;;;22.60;99.90;;;;;;5086357;28;20197;-81
2023/05/19 12:05:45;;;;;;;20.03;5.83;;;22.60;99.90;;;;;;5094181;28;20194;-77
2023/05/19 12:08:12;;;;;;;20.17;5.57;;;22.70;99.90;;;;;;5077521;28;20181;-80
2023/05/19 12:10:39;;;;;;;15.45;5.05;;;22.80;99.90;;;;;;5096195;28;20238;-77
2023/05/19 12:13:08;;;;;;;14.88;5.40;;;22.90;99.90;;;;;;5099067;28;20226;-86
2023/05/19 12:15:39;;;;;;;15.63;4.67;;;22.90;99.90;;;;;;5099980;28;20186;-79
2023/05/19 12:18:07;;;;;;;19.08;4.95;;;22.60;99.90;;;;;;5089949;28;20190;-79
2023/05/19 12:20:34;;;;;;;15.85;5.50;;;22.60;99.90;;;;;;5085452;28;20183;-83
2023/05/19 12:23:01;;;;;;;17.35;5.13;;;22.60;99.90;;;;;;5099581;28;20245;-83
2023/05/19 12:25:31;;;;;;;14.20;5.30;;;22.80;99.90;;;;;;5081009;28;20180;-87
2023/05/19 12:28:04;;;;;;;17.05;5.40;;;22.90;99.90;;;;;;5096524;28;20239;-81
2023/05/19 12:30:32;;;;;;;13.43;5.43;;;22.90;99.90;;;;;;5065184;28;20209;-88
2023/05/19 12:32:58;;;;;;;17.38;5.97;;;22.80;99.90;;;;;;5101737;28;20244;-82
2023/05/19 12:35:34;;;;;;;23.15;6.50;;;22.90;99.90;;;;;;5087051;28;20182;-88
2023/05/19 12:38:08;;;;;;;20.88;5.75;;;23.00;99.90;;;;;;5087131;28;20269;-84
2023/05/19 12:40:38;;;;;;;14.75;5.57;;;23.00;99.90;;;;;;5065239;28;20632;-84
2023/05/19 12:43:05;;;;;;;14.38;5.53;;;23.00;99.90;;;;;;5065276;28;20208;-84
2023/05/19 12:45:41;;;;;;;10.60;5.25;;;22.80;99.90;;;;;;5094520;28;20197;-83
2023/05/19 12:48:15;;;;;;;16.88;6.28;;;22.80;99.90;;;;;;5077206;28;20224;-80
2023/05/19 12:50:46;;;;;;;16.75;5.90;;;22.70;99.90;;;;;;5087704;28;20197;-80
2023/05/19 12:53:14;;;;;;;17.05;5.72;;;22.60;99.90;;;;;;5068483;28;20277;-85